Time;durP1;ratioP1;P1;durP2;ratioP2;P2;SDS_P1;SDS_P2;PMS_P1;PMS_P2;Temp;Humidity;BMP_temperature;BMP_pressure;BME280_temperature;BME280_humidity;BME280_pressure;Samples;Min_cycle;Max_cycle;Signal;HPM_P1;HPM_P2
2023/09/14 00:09:17;;;;;;;;;;;17.60;99.90;;;;;;21042015;28;19978;-76
2023/09/14 00:19:18;;;;;;;;;;;17.60;99.90;;;;;;21040427;28;19993;-76
2023/09/14 00:29:18;;;;;;;;;;;17.50;99.90;;;;;;21036603;28;19919;-76
2023/09/14 00:39:19;;;;;;;;;;;17.50;99.90;;;;;;21004230;28;19922;-76
2023/09/14 00:49:19;;;;;;;;;;;17.40;99.90;;;;;;21019959;28;19916;-76
2023/09/14 00:59:20;;;;;;;;;;;17.40;99.90;;;;;;21034727;28;19952;-75
2023/09/14 01:09:21;;;;;;;;;;;17.40;99.90;;;;;;21037156;28;20409;-75
2023/09/14 01:19:45;;;;;;;;;;;17.30;99.90;;;;;;21018462;28;20005;-75
2023/09/14 01:29:45;;;;;;;;;;;17.30;99.90;;;;;;20986658;28;19924;-74
2023/09/14 01:39:46;;;;;;;;;;;17.20;99.90;;;;;;21009222;28;19923;-75
2023/09/14 01:49:47;;;;;;;;;;;17.00;99.90;;;;;;21026767;28;20730;-75
2023/09/14 01:59:48;;;;;;;;;;;16.90;99.90;;;;;;21012521;28;19916;-76
2023/09/14 02:09:50;;;;;;;;;;;17.00;99.90;;;;;;21025460;28;19978;-76
2023/09/14 02:19:52;;;;;;;;;;;16.90;99.90;;;;;;21032155;28;20368;-76
2023/09/14 02:29:53;;;;;;;;;;;16.80;99.90;;;;;;21016280;28;19923;-75
2023/09/14 02:39:54;;;;;;;;;;;16.70;99.90;;;;;;21025647;28;19916;-75
2023/09/14 02:49:55;;;;;;;;;;;16.80;99.90;;;;;;21023783;28;19916;-75
2023/09/14 02:59:56;;;;;;;;;;;16.90;99.90;;;;;;21044475;28;20434;-76
2023/09/14 03:09:57;;;;;;;;;;;16.80;99.90;;;;;;21045972;28;19916;-76
2023/09/14 03:19:58;;;;;;;;;;;16.80;99.90;;;;;;21045569;28;19912;-75
2023/09/14 03:29:58;;;;;;;;;;;16.40;99.90;;;;;;21032336;28;19920;-75
2023/09/14 03:39:59;;;;;;;;;;;16.40;99.90;;;;;;20981345;28;19912;-75
2023/09/14 03:50:01;;;;;;;;;;;16.10;99.90;;;;;;20983164;28;20332;-75
2023/09/14 04:00:09;;;;;;;;;;;15.80;99.90;;;;;;21016733;28;19957;-75
2023/09/14 04:10:14;;;;;;;;;;;15.60;99.90;;;;;;21035116;28;20007;-75
2023/09/14 04:20:14;;;;;;;;;;;15.30;99.90;;;;;;21040437;28;20395;-77
2023/09/14 04:30:16;;;;;;;;;;;15.00;99.90;;;;;;20990975;28;19943;-77
2023/09/14 04:40:16;;;;;;;;;;;14.80;99.90;;;;;;21002764;28;19913;-76
2023/09/14 04:50:17;;;;;;;;;;;14.40;99.90;;;;;;21021974;28;19916;-76
2023/09/14 05:00:18;;;;;;;;;;;14.10;99.90;;;;;;21020602;28;19995;-77
2023/09/14 05:10:20;;;;;;;;;;;14.20;99.90;;;;;;20986598;28;19928;-76
2023/09/14 05:20:21;;;;;;;;;;;14.00;99.90;;;;;;21027751;28;20017;-76
2023/09/14 05:30:24;;;;;;;;;;;13.60;99.90;;;;;;20982882;28;19916;-75
2023/09/14 05:40:25;;;;;;;;;;;13.60;99.90;;;;;;21007843;28;20007;-75
2023/09/14 05:50:26;;;;;;;;;;;13.70;99.90;;;;;;21020253;28;19970;-75
2023/09/14 06:00:27;;;;;;;;;;;13.90;99.90;;;;;;20999022;28;20290;-74
2023/09/14 06:10:30;;;;;;;;;;;14.30;99.90;;;;;;20990536;28;19962;-74
2023/09/14 06:20:31;;;;;;;;;;;14.80;99.90;;;;;;20990569;28;20291;-75
2023/09/14 06:30:32;;;;;;;;;;;15.50;99.90;;;;;;21008110;28;19916;-74
2023/09/14 06:40:32;;;;;;;;;;;16.10;99.90;;;;;;21037011;28;20341;-74
2023/09/14 06:50:33;;;;;;;;;;;15.90;99.90;;;;;;21000007;28;19952;-73
2023/09/14 07:00:35;;;;;;;;;;;15.80;99.90;;;;;;21009176;28;19923;-74
2023/09/14 07:10:36;;;;;;;;;;;15.70;99.90;;;;;;21014925;28;20014;-74
2023/09/14 07:20:37;;;;;;;;;;;16.30;99.90;;;;;;21051024;28;20287;-74
2023/09/14 07:30:37;;;;;;;;;;;16.80;99.90;;;;;;21048852;28;19917;-75
2023/09/14 07:40:38;;;;;;;;;;;17.70;99.90;;;;;;21049509;28;20199;-74
2023/09/14 07:50:39;;;;;;;;;;;17.80;99.90;;;;;;21048031;28;19923;-75
2023/09/14 08:00:41;;;;;;;;;;;18.90;99.90;;;;;;21047195;28;20004;-75
2023/09/14 08:10:47;;;;;;;;;;;19.40;99.90;;;;;;21031490;28;19916;-75
2023/09/14 08:20:48;;;;;;;;;;;20.60;99.90;;;;;;21046653;28;20180;-75
2023/09/14 08:30:48;;;;;;;;;;;20.50;99.90;;;;;;21042724;28;20005;-74
2023/09/14 08:40:52;;;;;;;;;;;20.60;99.90;;;;;;21045489;28;20005;-75
2023/09/14 08:50:53;;;;;;;;;;;21.80;99.90;;;;;;21043872;28;19920;-75
2023/09/14 09:00:53;;;;;;;;;;;21.90;99.90;;;;;;21043035;28;19999;-75
2023/09/14 09:10:55;;;;;;;;;;;23.10;99.90;;;;;;21043405;28;19962;-76
2023/09/14 09:20:57;;;;;;;;;;;24.40;99.90;;;;;;21043867;28;19912;-76
2023/09/14 09:30:58;;;;;;;;;;;23.30;99.90;;;;;;21043464;28;20003;-77
2023/09/14 09:40:58;;;;;;;;;;;23.80;99.90;;;;;;21042154;28;19996;-76
2023/09/14 09:51:00;;;;;;;;;;;25.70;99.90;;;;;;21048744;28;20018;-76
2023/09/14 10:01:01;;;;;;;;;;;25.60;99.90;;;;;;21070677;28;20003;-76
2023/09/14 10:11:03;;;;;;;;;;;25.50;99.90;;;;;;21069395;28;19966;-76
2023/09/14 10:21:04;;;;;;;;;;;25.70;99.90;;;;;;21069928;28;19912;-75
2023/09/14 10:31:05;;;;;;;;;;;25.30;99.90;;;;;;21066112;28;19959;-76
2023/09/14 10:41:05;;;;;;;;;;;25.90;99.90;;;;;;21068803;28;20003;-76
2023/09/14 10:51:08;;;;;;;;;;;27.30;99.90;;;;;;21067829;28;20440;-76
2023/09/14 11:01:10;;;;;;;;;;;27.00;99.90;;;;;;21067702;28;19999;-75
2023/09/14 11:11:10;;;;;;;;;;;27.00;99.90;;;;;;21060253;28;19916;-76
2023/09/14 11:21:30;;;;;;;;;;;26.80;99.90;;;;;;21021782;28;19919;-76
2023/09/14 11:31:31;;;;;;;;;;;26.40;99.90;;;;;;21033024;28;20387;-76
2023/09/14 11:41:35;;;;;;;;;;;27.40;99.90;;;;;;21039385;28;19999;-76
2023/09/14 11:51:36;;;;;;;;;;;26.60;99.90;;;;;;21051356;28;19939;-75
2023/09/14 12:01:37;;;;;;;;;;;27.30;99.90;;;;;;21050148;28;19912;-76
2023/09/14 12:11:39;;;;;;;;;;;25.90;99.90;;;;;;21048542;28;19920;-76
2023/09/14 12:21:40;;;;;;;;;;;27.10;99.90;;;;;;21013676;28;19912;-75
2023/09/14 12:31:41;;;;;;;;;;;26.10;99.90;;;;;;21023359;28;19924;-75
2023/09/14 12:41:42;;;;;;;;;;;26.40;99.90;;;;;;21048800;28;19916;-76
2023/09/14 12:51:48;;;;;;;;;;;27.60;99.90;;;;;;21025593;28;19924;-76
2023/09/14 13:01:49;;;;;;;;;;;28.30;99.90;;;;;;21022330;28;19919;-76
2023/09/14 13:11:50;;;;;;;;;;;27.40;99.90;;;;;;21009211;28;20418;-76
2023/09/14 13:21:51;;;;;;;;;;;25.70;99.90;;;;;;20991987;28;20294;-76
2023/09/14 13:31:52;;;;;;;;;;;25.20;99.90;;;;;;21008052;28;19967;-75
2023/09/14 13:41:53;;;;;;;;;;;25.20;99.90;;;;;;20987236;28;19912;-75
2023/09/14 13:51:54;;;;;;;;;;;25.00;99.90;;;;;;21045011;28;20298;-75
2023/09/14 14:01:55;;;;;;;;;;;24.50;99.90;;;;;;21035490;28;19923;-75
2023/09/14 14:11:58;;;;;;;;;;;24.20;99.90;;;;;;21007302;28;20003;-75
2023/09/14 14:21:59;;;;;;;;;;;24.10;99.90;;;;;;21019697;28;19951;-75
2023/09/14 14:31:59;;;;;;;;;;;24.00;99.90;;;;;;21019867;28;19963;-75
2023/09/14 14:42:00;;;;;;;;;;;23.90;99.90;;;;;;21039171;28;19956;-75
2023/09/14 14:52:01;;;;;;;;;;;23.70;99.90;;;;;;21012950;28;19916;-76
2023/09/14 15:02:01;;;;;;;;;;;23.40;99.90;;;;;;21033940;28;19970;-74
2023/09/14 15:12:02;;;;;;;;;;;23.70;99.90;;;;;;21016996;28;20011;-75
2023/09/14 15:22:03;;;;;;;;;;;23.40;99.90;;;;;;21023325;28;20298;-75
2023/09/14 15:32:04;;;;;;;;;;;23.20;99.90;;;;;;21058030;28;19916;-75
2023/09/14 15:42:04;;;;;;;;;;;22.80;99.90;;;;;;21042773;28;19916;-76
2023/09/14 15:52:05;;;;;;;;;;;22.40;99.90;;;;;;21038080;28;19982;-76
2023/09/14 16:02:06;;;;;;;;;;;22.20;99.90;;;;;;21045643;28;19912;-75
2023/09/14 16:12:07;;;;;;;;;;;22.10;99.90;;;;;;21014315;28;19923;-75
2023/09/14 16:22:07;;;;;;;;;;;21.90;99.90;;;;;;21033323;28;19913;-76
2023/09/14 16:32:09;;;;;;;;;;;21.60;99.90;;;;;;21028541;28;20562;-75
2023/09/14 16:42:09;;;;;;;;;;;21.50;99.90;;;;;;21033799;28;20382;-74
2023/09/14 16:52:10;;;;;;;;;;;21.30;99.90;;;;;;21050331;28;19959;-74
2023/09/14 17:02:11;;;;;;;;;;;21.00;99.90;;;;;;21114180;22;19982;-75
2023/09/14 17:12:11;;;;;;;;;;;20.80;99.90;;;;;;21128409;28;19931;-75
2023/09/14 17:22:12;;;;;;;;;;;20.50;99.90;;;;;;21120466;28;19912;-75
2023/09/14 17:32:13;;;;;;;;;;;20.30;99.90;;;;;;21137573;28;19915;-75
2023/09/14 17:42:13;;;;;;;;;;;20.40;99.90;;;;;;21129660;28;19957;-75
2023/09/14 17:52:14;;;;;;;;;;;20.10;99.90;;;;;;21140934;28;19974;-75
2023/09/14 18:02:15;;;;;;;;;;;20.00;99.90;;;;;;21153167;28;19924;-75
2023/09/14 18:12:16;;;;;;;;;;;19.70;99.90;;;;;;21139696;28;19916;-75
2023/09/14 18:22:16;;;;;;;;;;;19.60;99.90;;;;;;21164358;28;20460;-74
2023/09/14 18:32:17;;;;;;;;;;;19.60;99.90;;;;;;21152522;28;20266;-75
2023/09/14 18:42:18;;;;;;;;;;;19.20;99.90;;;;;;21161957;28;20402;-74
2023/09/14 18:52:18;;;;;;;;;;;19.40;99.90;;;;;;21157114;28;19915;-75
2023/09/14 19:02:19;;;;;;;;;;;19.30;99.90;;;;;;21144416;27;19939;-74
2023/09/14 19:12:20;;;;;;;;;;;19.20;99.90;;;;;;21154847;28;19974;-75
2023/09/14 19:22:20;;;;;;;;;;;19.30;99.90;;;;;;21147313;28;19918;-75
2023/09/14 19:32:21;;;;;;;;;;;19.40;99.90;;;;;;21144842;28;19920;-75
2023/09/14 19:42:22;;;;;;;;;;;19.40;99.90;;;;;;21135969;28;19915;-75
2023/09/14 19:52:23;;;;;;;;;;;19.40;99.90;;;;;;21128782;28;19916;-75
2023/09/14 20:02:26;;;;;;;;;;;19.40;99.90;;;;;;21152818;27;20298;-76
2023/09/14 20:12:27;;;;;;;;;;;19.50;99.90;;;;;;21123171;28;20075;-75
2023/09/14 20:22:28;;;;;;;;;;;19.50;99.90;;;;;;21160878;27;19919;-75
2023/09/14 20:32:31;;;;;;;;;;;19.30;99.90;;;;;;21148461;28;19920;-75
2023/09/14 20:42:33;;;;;;;;;;;19.00;99.90;;;;;;21142575;28;19915;-75
2023/09/14 20:52:34;;;;;;;;;;;18.90;99.90;;;;;;21158172;28;19937;-75
2023/09/14 21:02:34;;;;;;;;;;;18.80;99.90;;;;;;21126387;28;19916;-75
2023/09/14 21:12:35;;;;;;;;;;;18.30;99.90;;;;;;21130328;28;20427;-75
2023/09/14 21:22:36;;;;;;;;;;;17.60;99.90;;;;;;21124907;28;20359;-75
2023/09/14 21:32:36;;;;;;;;;;;17.40;99.90;;;;;;21151442;28;19959;-75
2023/09/14 21:42:37;;;;;;;;;;;17.50;99.90;;;;;;21141686;28;19970;-75
2023/09/14 21:52:38;;;;;;;;;;;17.60;99.90;;;;;;21101976;28;19915;-75
2023/09/14 22:02:40;;;;;;;;;;;17.30;99.90;;;;;;21138633;27;20214;-75
2023/09/14 22:12:41;;;;;;;;;;;17.40;99.90;;;;;;21151293;28;19922;-75
2023/09/14 22:22:42;;;;;;;;;;;17.10;99.90;;;;;;21145346;28;20301;-75
2023/09/14 22:32:43;;;;;;;;;;;17.20;99.90;;;;;;21114663;28;19927;-75
2023/09/14 22:42:43;;;;;;;;;;;17.50;99.90;;;;;;21125657;28;20332;-75
2023/09/14 22:52:45;;;;;;;;;;;17.30;99.90;;;;;;21143622;28;19969;-75
2023/09/14 23:02:46;;;;;;;;;;;17.00;99.90;;;;;;21110069;28;19961;-76
2023/09/14 23:12:47;;;;;;;;;;;16.70;99.90;;;;;;21161651;28;20072;-75
2023/09/14 23:22:48;;;;;;;;;;;16.50;99.90;;;;;;21128557;28;19918;-75
2023/09/14 23:32:52;;;;;;;;;;;16.30;99.90;;;;;;21127002;28;19955;-75
2023/09/14 23:42:54;;;;;;;;;;;16.40;99.90;;;;;;21145193;28;19923;-75
2023/09/14 23:52:55;;;;;;;;;;;16.10;99.90;;;;;;21145331;28;19919;-75
